Wanblee, SD (57577)

6:42 PM MDT on August 25, 2019 (GMT -0600)
Philip | | Change Station
Active Advisory: Severe Thunderstorm Watch

Elev 2205 ft 44.05 °N, 101.60 °W | Updated 47 minutes ago

Partly Cloudy
Partly Cloudy
86 °F
Feels Like 84 °F
N
8
Wind Variable Wind from North

Today
High -- | Low -- °F
--% Chance of Precip.
Yesterday
High -- | Low -- °F
Precip. -- in
Pressure 29.62 in
Visibility 10.0 miles
Clouds Clear
Heat Index 84 °F
Dew Point 55 °F
Humidity 35%
Rainfall 0.00 in
Snow Depth Not available.
6:02 AM 7:34 PM
Waning Crescent, 25% visible
METAR KPHP 252355Z AUTO 35007KT 10SM CLR 30/13 A2968 RMK AO2 SLP029 T03000128 10339 20294 56008
Pressure 29.62 in
Visibility 10.0 miles
Clouds Clear
Heat Index 84 °F
Dew Point 55 °F
Humidity 35%
Rainfall 0.00 in
Snow Depth Not available.
6:02 AM 7:34 PM
Waning Crescent, 25% visible
METAR KPHP 252355Z AUTO 35007KT 10SM CLR 30/13 A2968 RMK AO2 SLP029 T03000128 10339 20294 56008

Get Your Daily Forecast Email!

Thanks for signing up!

Be on the lookout for a verification email in your inbox.

You'll start receiving severe weather alerts in your inbox..

×

10-Day Weather Forecast

Almanac

Astronomy

Aug. 25, 2019 Rise Set
Actual Time
Civil Twilight
Nautical Twilight
Astronomical Twilight
Moon
Length of Visible Light
Length of Day
Tomorrow will be .
, % of the Moon is Illuminated

Today's Extremes

State Highs State Lows

Community

WunderPhotos

Category 6

Welcome to Category 6. This is the collective home for Weather Underground's featured writeups by Dr. Jeff Masters (right), Bob Henson (left), Chris Burt, and other regular contributors.

Nearby

Air Quality

  Air Quality AQ Index Pollutant
Not available.

Snow Depth

Station Depth Elevation

Earthquake Activity

City Distance Mag. Time & Date
Minimum magnitude displayed is 2.5.

Coastal Water Temperatures

Place Temperature

Stations

Nearby Weather Stations

Station Location Temp. Windchill Dew Point Humidity Wind Precip. Elev Updated Type
                   

Watches & Warnings

Severe Thunderstorm Watch
Issued: 6:33 PM MDT Aug. 25, 2019 – National Weather Service


The National Weather Service has issued Severe Thunderstorm Watch
620 until 1 am MDT /2 am CDT/ Monday which replaces a portion of
Severe Thunderstorm Watch 619. The new watch is valid for the
following areas

In South Dakota the new watch includes 6 counties

In south central South Dakota

Mellette Todd Tripp

In southwest South Dakota

Bennett Jackson

In west central South Dakota

Haakon

This includes the cities of Allen, Billsburg, Clearfield, ideal,
Kadoka, Kirley, lacreek wildlife Refuge, Martin, Milesville,
mission, Philip, Rosebud, Saint Francis, Tuthill, White River,
Winner, and wood.